createdAt,value
2018-06-11T00:01:45.108Z,98.40
2018-06-11T00:04:25.860Z,97.40
2018-06-11T00:07:06.937Z,97.60
2018-06-11T00:09:47.974Z,96.80
2018-06-11T00:12:28.773Z,97.20
2018-06-11T00:15:09.225Z,97.20
2018-06-11T00:17:49.548Z,96.90
2018-06-11T00:20:29.878Z,96.80
2018-06-11T00:23:10.298Z,96.80
2018-06-11T00:25:51.138Z,96.80
2018-06-11T00:28:32.360Z,97.30
2018-06-11T00:31:13.329Z,97.60
2018-06-11T00:33:54.060Z,97.20
2018-06-11T00:36:34.949Z,97.30
2018-06-11T00:39:17.621Z,97.60
2018-06-11T00:41:57.924Z,97.20
2018-06-11T00:44:38.380Z,97.50
2018-06-11T00:47:18.691Z,97.70
2018-06-11T00:49:59.878Z,97.60
2018-06-11T00:52:41.197Z,98.10
2018-06-11T00:55:22.345Z,98.30
2018-06-11T00:58:02.936Z,98.30
2018-06-11T01:03:23.348Z,98.70
2018-06-11T01:06:04.562Z,97.70
2018-06-11T01:08:44.868Z,97.80
2018-06-11T01:11:26.716Z,97.20
2018-06-11T01:14:07.399Z,97.40
2018-06-11T01:16:48.046Z,97.10
2018-06-11T01:19:28.715Z,97.40
2018-06-11T01:22:09.509Z,97.30
2018-06-11T01:24:49.939Z,98.30
2018-06-11T01:27:30.435Z,98.00
2018-06-11T01:30:11.184Z,97.40
2018-06-11T01:32:51.517Z,97.20
2018-06-11T01:35:31.877Z,97.30
2018-06-11T01:38:12.568Z,97.60
2018-06-11T01:40:52.927Z,97.40
2018-06-11T01:43:33.426Z,96.80
2018-06-11T01:46:14.260Z,97.30
2018-06-11T01:48:55.021Z,96.80
2018-06-11T01:51:35.358Z,96.70
2018-06-11T01:54:15.800Z,96.20
2018-06-11T01:56:56.200Z,97.00
2018-06-11T01:59:37.080Z,97.40
2018-06-11T02:02:17.718Z,97.50
2018-06-11T02:04:58.745Z,98.40
2018-06-11T02:07:39.300Z,97.70
2018-06-11T02:10:20.151Z,98.30
2018-06-11T02:13:00.567Z,98.00
2018-06-11T02:15:40.886Z,98.10
2018-06-11T02:18:21.528Z,98.20
2018-06-11T02:21:02.005Z,97.90
2018-06-11T02:23:42.688Z,97.90
2018-06-11T02:26:23.905Z,97.40
2018-06-11T02:29:04.583Z,96.50
2018-06-11T02:31:44.928Z,96.50
2018-06-11T02:34:25.605Z,96.60
2018-06-11T02:37:06.477Z,97.30
2018-06-11T02:39:47.380Z,97.90
2018-06-11T02:42:28.217Z,97.50
2018-06-11T02:45:08.564Z,97.80
2018-06-11T02:47:49.013Z,97.70
2018-06-11T02:50:29.896Z,98.40
2018-06-11T02:53:10.725Z,98.20
2018-06-11T02:55:51.532Z,98.00
2018-06-11T02:58:32.033Z,97.80
2018-06-11T03:01:12.778Z,97.40
2018-06-11T03:03:53.137Z,97.40
2018-06-11T03:06:34.157Z,97.80
2018-06-11T03:09:14.505Z,97.80
2018-06-11T03:11:54.899Z,97.70
2018-06-11T03:14:35.249Z,97.50
2018-06-11T03:17:15.756Z,97.20
2018-06-11T03:19:56.118Z,96.70
2018-06-11T03:22:36.540Z,96.50
2018-06-11T03:25:17.208Z,96.50
2018-06-11T03:27:57.684Z,96.90
2018-06-11T03:30:38.066Z,96.00
2018-06-11T03:35:58.866Z,96.20
2018-06-11T03:38:39.561Z,96.20
2018-06-11T03:41:20.365Z,96.30
2018-06-11T03:44:00.688Z,96.60
2018-06-11T03:46:41.445Z,96.60
2018-06-11T03:49:21.919Z,96.50
2018-06-11T03:52:02.755Z,96.40
2018-06-11T03:54:43.805Z,96.80
2018-06-11T03:57:24.333Z,96.20
2018-06-11T04:00:04.835Z,96.10
2018-06-11T04:02:45.852Z,96.20
2018-06-11T04:05:26.680Z,96.10
2018-06-11T04:08:07.344Z,95.30
2018-06-11T04:10:48.196Z,95.70
2018-06-11T04:13:28.743Z,95.40
2018-06-11T04:16:09.040Z,95.10
2018-06-11T04:18:49.383Z,95.20
2018-06-11T04:21:29.702Z,94.90
2018-06-11T04:24:10.478Z,95.10
2018-06-11T04:26:51.246Z,95.10
2018-06-11T04:29:32.426Z,94.20
2018-06-11T04:32:12.767Z,94.60
2018-06-11T04:34:53.274Z,94.10
2018-06-11T04:40:14.393Z,93.60
2018-06-11T04:42:55.373Z,93.60
2018-06-11T04:45:36.029Z,93.50
2018-06-11T04:48:16.325Z,93.30
2018-06-11T04:50:57.792Z,93.50
2018-06-11T04:53:38.269Z,93.00
2018-06-11T04:56:18.940Z,92.70
2018-06-11T04:58:59.416Z,92.10
2018-06-11T05:01:39.938Z,91.90
2018-06-11T05:04:20.392Z,92.00
2018-06-11T05:07:00.896Z,92.00
2018-06-11T05:09:41.336Z,91.90
2018-06-11T05:12:22.028Z,92.20
2018-06-11T05:15:02.456Z,92.40
2018-06-11T05:17:43.509Z,91.70
2018-06-11T05:20:25.114Z,92.30
2018-06-11T05:23:05.632Z,91.80
2018-06-11T05:25:46.813Z,91.50
2018-06-11T05:28:27.213Z,91.30
2018-06-11T05:31:08.024Z,91.00
2018-06-11T05:33:48.688Z,91.60
2018-06-11T05:36:29.104Z,91.50
2018-06-11T05:39:10.665Z,91.00
2018-06-11T05:41:51.453Z,91.20
2018-06-11T05:44:31.750Z,91.00
2018-06-11T05:47:12.569Z,90.60
2018-06-11T05:49:53.054Z,91.30
2018-06-11T05:52:33.905Z,91.00
2018-06-11T05:55:14.720Z,91.30
2018-06-11T05:57:55.534Z,91.20
2018-06-11T06:00:35.867Z,90.70
2018-06-11T06:03:16.938Z,90.30
2018-06-11T06:05:57.479Z,90.30
2018-06-11T06:08:37.994Z,90.00
2018-06-11T06:11:18.547Z,88.30
2018-06-11T06:13:58.924Z,88.80
2018-06-11T06:16:39.776Z,88.40
2018-06-11T06:19:20.648Z,88.80
2018-06-11T06:22:01.064Z,88.60
2018-06-11T06:24:41.425Z,89.30
2018-06-11T06:27:21.804Z,89.10
2018-06-11T06:32:42.481Z,87.20
2018-06-11T06:35:23.252Z,85.20
2018-06-11T06:38:04.361Z,85.10
2018-06-11T06:40:44.718Z,84.90
2018-06-11T06:43:25.440Z,84.50
2018-06-11T06:46:05.922Z,84.50
2018-06-11T06:48:46.424Z,85.20
2018-06-11T06:51:27.251Z,85.40
2018-06-11T06:54:07.737Z,85.10
2018-06-11T06:56:48.424Z,85.80
2018-06-11T06:59:29.222Z,86.00
2018-06-11T07:02:09.537Z,83.80
2018-06-11T07:04:50.159Z,79.80
2018-06-11T07:07:30.821Z,78.10
2018-06-11T07:10:11.337Z,77.20
2018-06-11T07:12:52.231Z,74.70
2018-06-11T07:15:32.933Z,72.00
2018-06-11T07:18:13.872Z,74.30
2018-06-11T07:20:54.413Z,72.30
2018-06-11T07:23:35.416Z,70.60
2018-06-11T07:28:56.736Z,73.60
2018-06-11T07:31:37.514Z,72.50
2018-06-11T07:34:18.308Z,75.10
2018-06-11T07:36:59.333Z,73.10
2018-06-11T07:39:39.853Z,74.80
2018-06-11T07:42:20.686Z,72.90
2018-06-11T07:45:01.394Z,72.70
2018-06-11T07:47:42.068Z,69.40
2018-06-11T07:50:22.632Z,68.70
2018-06-11T07:53:03.584Z,69.70
2018-06-11T07:55:44.346Z,69.20
2018-06-11T07:58:26.072Z,65.90
2018-06-11T08:01:06.993Z,65.20
2018-06-11T08:03:48.017Z,61.80
2018-06-11T08:06:28.820Z,63.10
2018-06-11T08:09:09.397Z,63.10
2018-06-11T08:11:50.471Z,60.80
2018-06-11T08:14:30.937Z,59.30
2018-06-11T08:17:11.439Z,59.60
2018-06-11T08:19:52.337Z,58.90
2018-06-11T08:22:32.643Z,58.50
2018-06-11T08:25:13.197Z,59.70
2018-06-11T08:27:54.009Z,61.00
2018-06-11T08:30:34.520Z,62.50
2018-06-11T08:33:15.173Z,61.50
2018-06-11T08:35:55.679Z,64.40
2018-06-11T08:38:36.868Z,62.30
2018-06-11T08:41:17.396Z,63.60
2018-06-11T08:46:38.427Z,67.70
2018-06-11T08:49:19.095Z,70.40
2018-06-11T08:52:00.279Z,70.20
2018-06-11T08:54:41.081Z,72.80
2018-06-11T08:57:21.840Z,73.20
2018-06-11T09:00:02.569Z,74.80
2018-06-11T09:02:43.661Z,76.60
2018-06-11T09:05:24.289Z,76.50
2018-06-11T09:08:05.111Z,75.70
2018-06-11T09:10:45.971Z,77.30
2018-06-11T09:13:27.024Z,77.00
2018-06-11T09:16:07.853Z,76.30
2018-06-11T09:18:48.361Z,76.30
2018-06-11T09:21:30.966Z,75.40
2018-06-11T09:24:11.477Z,73.00
2018-06-11T09:26:51.919Z,72.30
2018-06-11T09:29:32.943Z,71.90
2018-06-11T09:32:13.627Z,70.60
2018-06-11T09:34:54.377Z,69.40
2018-06-11T09:37:35.296Z,69.60
2018-06-11T09:40:16.051Z,69.40
2018-06-11T09:42:57.060Z,68.90
2018-06-11T09:45:38.049Z,68.20
2018-06-11T09:48:18.533Z,65.60
2018-06-11T09:50:58.969Z,63.60
2018-06-11T09:53:39.864Z,62.50
2018-06-11T09:56:20.709Z,63.00
2018-06-11T09:59:01.157Z,62.80
2018-06-11T10:01:42.337Z,65.60
2018-06-11T10:04:22.872Z,66.20
2018-06-11T10:07:03.553Z,66.70
2018-06-11T10:09:44.437Z,67.60
2018-06-11T10:12:25.573Z,63.70
2018-06-11T10:15:06.481Z,59.60
2018-06-11T10:17:46.823Z,58.20
2018-06-11T10:20:27.744Z,58.10
2018-06-11T10:23:08.425Z,60.10
2018-06-11T10:25:48.789Z,59.70
2018-06-11T10:28:29.932Z,62.80
2018-06-11T10:31:10.732Z,64.80
2018-06-11T10:33:51.161Z,65.10
2018-06-11T10:36:32.078Z,64.50
2018-06-11T10:39:13.544Z,64.70
2018-06-11T10:41:54.096Z,63.10
2018-06-11T10:44:34.589Z,61.70
2018-06-11T10:47:14.948Z,58.10
2018-06-11T10:49:55.964Z,55.50
2018-06-11T10:52:36.815Z,56.50
2018-06-11T10:55:17.805Z,56.50
2018-06-11T10:57:58.894Z,56.20
2018-06-11T11:00:39.819Z,57.30
2018-06-11T11:03:20.330Z,57.10
2018-06-11T11:06:01.352Z,55.00
2018-06-11T11:08:42.253Z,54.40
2018-06-11T11:11:23.328Z,52.90
2018-06-11T11:14:03.975Z,53.00
2018-06-11T11:16:44.734Z,54.00
2018-06-11T11:19:25.536Z,54.50
2018-06-11T11:22:06.007Z,53.90
2018-06-11T11:24:46.383Z,52.10
2018-06-11T11:27:26.768Z,52.90
2018-06-11T11:30:07.510Z,52.50
2018-06-11T11:32:48.541Z,54.20
2018-06-11T11:35:29.464Z,54.80
2018-06-11T11:38:10.339Z,54.40
2018-06-11T11:40:51.225Z,54.70
2018-06-11T11:43:32.081Z,56.00
2018-06-11T11:46:13.593Z,56.00
2018-06-11T11:48:54.194Z,57.10
2018-06-11T11:51:34.606Z,55.60
2018-06-11T11:54:15.486Z,54.50
2018-06-11T11:56:55.797Z,54.20
2018-06-11T11:59:36.156Z,53.90
2018-06-11T12:02:16.804Z,53.80
2018-06-11T12:04:57.289Z,52.90
2018-06-11T12:07:37.654Z,53.00
2018-06-11T12:10:18.757Z,51.50
2018-06-11T12:12:59.061Z,52.30
2018-06-11T12:15:39.714Z,51.60
2018-06-11T12:18:20.773Z,47.80
2018-06-11T12:21:01.221Z,48.90
2018-06-11T12:23:41.910Z,46.40
2018-06-11T12:26:23.190Z,45.60
2018-06-11T12:29:03.898Z,45.40
2018-06-11T12:31:44.378Z,46.70
2018-06-11T12:34:25.212Z,45.30
2018-06-11T12:37:06.065Z,44.50
2018-06-11T12:39:46.962Z,46.60
2018-06-11T12:42:27.826Z,46.80
2018-06-11T12:45:08.489Z,48.10
2018-06-11T12:47:49.237Z,48.20
2018-06-11T12:50:30.108Z,48.00
2018-06-11T12:53:10.603Z,47.70
2018-06-11T12:55:51.568Z,47.40
2018-06-11T12:58:32.408Z,47.10
2018-06-11T13:03:54.385Z,48.30
2018-06-11T13:06:36.304Z,49.80
2018-06-11T13:09:16.921Z,49.50
2018-06-11T13:11:57.708Z,48.40
2018-06-11T13:14:38.245Z,47.70
2018-06-11T13:17:18.960Z,47.40
2018-06-11T13:19:59.656Z,46.30
2018-06-11T13:22:40.273Z,46.10
2018-06-11T13:25:20.606Z,46.50
2018-06-11T13:28:01.396Z,45.50
2018-06-11T13:30:42.413Z,45.00
2018-06-11T13:33:22.937Z,45.30
2018-06-11T13:36:03.249Z,44.60
2018-06-11T13:38:43.701Z,43.30
2018-06-11T13:41:24.612Z,45.30
2018-06-11T13:44:05.707Z,45.30
2018-06-11T13:46:46.172Z,44.20
2018-06-11T13:49:26.534Z,46.20
2018-06-11T13:52:07.580Z,44.90
2018-06-11T13:54:48.065Z,45.00
2018-06-11T13:57:28.747Z,47.00
2018-06-11T14:00:09.836Z,47.70
2018-06-11T14:02:51.044Z,48.10
2018-06-11T14:05:31.845Z,46.30
2018-06-11T14:08:12.129Z,46.70
2018-06-11T14:10:52.608Z,48.30
2018-06-11T14:13:33.072Z,47.30
2018-06-11T14:16:14.110Z,49.70
2018-06-11T14:18:54.595Z,49.50
2018-06-11T14:21:34.949Z,49.60
2018-06-11T14:24:15.264Z,49.00
2018-06-11T14:26:56.393Z,48.90
2018-06-11T14:29:37.176Z,51.00
2018-06-11T14:32:17.527Z,51.50
2018-06-11T14:34:57.954Z,49.90
2018-06-11T14:37:39.134Z,49.40
2018-06-11T14:40:19.417Z,49.50
2018-06-11T14:43:00.297Z,50.40
2018-06-11T14:45:40.761Z,48.00
2018-06-11T14:48:21.067Z,48.50
2018-06-11T14:51:01.613Z,48.90
2018-06-11T14:53:42.269Z,50.50
2018-06-11T14:56:23.497Z,51.30
2018-06-11T14:59:04.296Z,51.50
2018-06-11T15:01:44.752Z,51.60
2018-06-11T15:04:25.451Z,50.00
2018-06-11T15:07:05.900Z,49.00
2018-06-11T15:09:46.513Z,51.70
2018-06-11T15:12:27.248Z,50.20
2018-06-11T15:15:07.976Z,50.20
2018-06-11T15:17:48.466Z,52.50
2018-06-11T15:20:29.860Z,49.80
2018-06-11T15:23:10.975Z,48.60
2018-06-11T15:25:51.527Z,50.00
2018-06-11T15:28:31.953Z,49.30
2018-06-11T15:31:13.136Z,49.90
2018-06-11T15:33:54.133Z,49.40
2018-06-11T15:36:34.718Z,50.40
2018-06-11T15:39:15.161Z,51.60
2018-06-11T15:41:56.065Z,50.60
2018-06-11T15:44:37.182Z,51.10
2018-06-11T15:47:17.712Z,51.30
2018-06-11T15:49:58.241Z,50.70
2018-06-11T15:52:38.706Z,50.90
2018-06-11T15:55:19.008Z,53.10
2018-06-11T15:57:59.817Z,52.70
2018-06-11T16:00:40.508Z,52.10
2018-06-11T16:03:22.220Z,52.10
2018-06-11T16:06:03.101Z,52.60
2018-06-11T16:08:43.528Z,53.60
2018-06-11T16:11:24.206Z,54.40
2018-06-11T16:14:04.727Z,55.00
2018-06-11T16:16:45.805Z,54.60
2018-06-11T16:19:26.792Z,55.90
2018-06-11T16:22:07.284Z,54.70
2018-06-11T16:24:47.809Z,53.70
2018-06-11T16:27:28.249Z,54.60
2018-06-11T16:30:09.595Z,53.40
2018-06-11T16:32:50.555Z,54.90
2018-06-11T16:35:31.330Z,54.60
2018-06-11T16:38:12.176Z,55.80
2018-06-11T16:40:53.356Z,54.60
2018-06-11T16:43:34.134Z,54.30
2018-06-11T16:46:15.261Z,56.10
2018-06-11T16:51:36.616Z,55.90
2018-06-11T16:54:17.936Z,56.50
2018-06-11T16:56:59.541Z,56.80
2018-06-11T16:59:40.608Z,56.70
2018-06-11T17:02:21.168Z,57.50
2018-06-11T17:05:02.414Z,57.30
2018-06-11T17:07:42.732Z,57.90
2018-06-11T17:10:23.424Z,57.50
2018-06-11T17:13:04.297Z,57.60
2018-06-11T17:15:44.732Z,58.10
2018-06-11T17:18:25.441Z,58.30
2018-06-11T17:21:06.393Z,58.40
2018-06-11T17:23:46.871Z,58.90
2018-06-11T17:26:27.235Z,59.50
2018-06-11T17:29:08.087Z,59.50
2018-06-11T17:31:48.948Z,58.70
2018-06-11T17:34:29.511Z,58.40
2018-06-11T17:37:10.636Z,58.90
2018-06-11T17:39:51.195Z,58.50
2018-06-11T17:42:32.109Z,58.30
2018-06-11T17:45:12.764Z,57.70
2018-06-11T17:47:54.038Z,58.00
2018-06-11T17:50:35.512Z,58.50
2018-06-11T17:53:16.074Z,57.90
2018-06-11T17:55:57.013Z,57.40
2018-06-11T17:58:37.908Z,58.60
2018-06-11T18:01:18.708Z,59.70
2018-06-11T18:03:59.177Z,60.50
2018-06-11T18:09:20.233Z,60.40
2018-06-11T18:12:01.315Z,60.70
2018-06-11T18:14:42.470Z,60.00
2018-06-11T18:17:23.740Z,60.70
2018-06-11T18:20:04.289Z,61.30
2018-06-11T18:22:44.621Z,61.20
2018-06-11T18:28:06.056Z,61.80
2018-06-11T18:30:46.584Z,61.60
2018-06-11T18:33:27.438Z,60.70
2018-06-11T18:36:08.134Z,61.30
2018-06-11T18:38:49.485Z,61.80
2018-06-11T18:41:30.374Z,62.60
2018-06-11T18:44:11.197Z,63.40
2018-06-11T18:46:51.569Z,64.00
2018-06-11T18:49:32.704Z,64.00
2018-06-11T18:52:13.509Z,64.60
2018-06-11T18:54:54.036Z,64.30
2018-06-11T18:57:34.612Z,65.10
2018-06-11T19:05:36.035Z,66.00
2018-06-11T19:08:16.522Z,66.10
2018-06-11T19:10:57.397Z,66.00
2018-06-11T19:13:37.939Z,65.80
2018-06-11T19:16:18.462Z,66.50
2018-06-11T19:18:59.079Z,67.30
2018-06-11T19:21:40.223Z,68.00
2018-06-11T19:24:21.026Z,67.70
2018-06-11T19:29:42.288Z,68.00
2018-06-11T19:32:23.325Z,67.90
2018-06-11T19:35:04.415Z,68.00
2018-06-11T19:37:45.632Z,68.10
2018-06-11T19:40:26.272Z,68.40
2018-06-11T19:43:06.753Z,69.70
2018-06-11T19:45:47.129Z,69.80
2018-06-11T19:48:27.926Z,69.00
2018-06-11T19:51:09.045Z,70.20
2018-06-11T19:53:50.310Z,70.00
2018-06-11T19:56:31.181Z,70.80
2018-06-11T19:59:12.480Z,71.70
2018-06-11T20:01:53.337Z,73.50
2018-06-11T20:04:34.215Z,72.20
2018-06-11T20:07:15.175Z,72.30
2018-06-11T20:09:55.973Z,74.00
2018-06-11T20:15:16.724Z,73.20
2018-06-11T20:17:57.257Z,73.20
2018-06-11T20:20:38.035Z,74.40
2018-06-11T20:23:18.580Z,73.50
2018-06-11T20:25:59.175Z,73.60
2018-06-11T20:28:39.556Z,74.40
2018-06-11T20:31:21.563Z,73.40
2018-06-11T20:34:02.312Z,73.10
2018-06-11T20:36:43.635Z,73.80
2018-06-11T20:39:24.503Z,73.00
2018-06-11T20:42:05.595Z,72.80
2018-06-11T20:44:46.181Z,74.00
2018-06-11T20:47:26.853Z,74.80
2018-06-11T20:50:07.756Z,74.40
2018-06-11T20:52:48.692Z,74.80
2018-06-11T20:55:29.801Z,74.10
2018-06-11T20:58:10.677Z,75.20
2018-06-11T21:00:51.003Z,75.00
2018-06-11T21:03:31.478Z,75.80
2018-06-11T21:06:12.112Z,75.60
2018-06-11T21:08:52.547Z,75.50
2018-06-11T21:11:33.457Z,74.40
2018-06-11T21:14:14.328Z,73.60
2018-06-11T21:16:55.469Z,74.70
2018-06-11T21:19:36.013Z,75.20
2018-06-11T21:22:16.592Z,75.90
2018-06-11T21:24:57.686Z,75.90
2018-06-11T21:27:38.062Z,75.30
2018-06-11T21:30:18.800Z,75.10
2018-06-11T21:32:59.180Z,75.30
2018-06-11T21:35:39.557Z,75.30
2018-06-11T21:41:00.235Z,77.40
2018-06-11T21:43:40.649Z,76.70
2018-06-11T21:46:21.445Z,77.40
2018-06-11T21:49:01.920Z,76.90
2018-06-11T21:51:42.612Z,76.40
2018-06-11T21:54:23.236Z,76.00
2018-06-11T21:57:04.241Z,75.60
2018-06-11T21:59:45.060Z,75.60
2018-06-11T22:02:25.680Z,75.90
2018-06-11T22:05:07.317Z,75.90
2018-06-11T22:07:47.817Z,77.50
2018-06-11T22:10:28.561Z,77.90
2018-06-11T22:13:09.487Z,78.70
2018-06-11T22:15:49.995Z,80.10
2018-06-11T22:18:31.100Z,80.50
2018-06-11T22:21:11.951Z,81.00
2018-06-11T22:23:52.743Z,82.10
2018-06-11T22:26:33.530Z,83.00
2018-06-11T22:29:14.212Z,83.30
2018-06-11T22:31:54.663Z,83.70
2018-06-11T22:34:35.089Z,83.50
2018-06-11T22:37:15.412Z,83.20
2018-06-11T22:39:55.851Z,83.90
2018-06-11T22:42:36.292Z,84.10
2018-06-11T22:45:16.766Z,83.50
2018-06-11T22:47:57.442Z,84.60
2018-06-11T22:50:38.114Z,84.80
2018-06-11T22:53:18.508Z,85.20
2018-06-11T22:55:59.196Z,85.90
2018-06-11T22:58:39.789Z,86.10
2018-06-11T23:01:20.730Z,86.30
2018-06-11T23:04:01.283Z,87.30
2018-06-11T23:06:41.657Z,87.90
2018-06-11T23:09:22.024Z,87.40
2018-06-11T23:12:02.896Z,87.70
2018-06-11T23:14:43.340Z,86.70
2018-06-11T23:17:23.737Z,87.90
2018-06-11T23:20:05.042Z,88.10
2018-06-11T23:22:45.641Z,87.90
2018-06-11T23:25:26.480Z,88.40
2018-06-11T23:28:07.265Z,88.30
2018-06-11T23:30:48.095Z,88.00
2018-06-11T23:36:09.108Z,86.80
2018-06-11T23:38:49.444Z,87.30
2018-06-11T23:41:29.984Z,86.10
2018-06-11T23:46:51.075Z,87.50
2018-06-11T23:49:32.102Z,85.70
2018-06-11T23:52:12.800Z,87.10
2018-06-11T23:54:53.588Z,86.50
2018-06-11T23:57:34.108Z,86.70
